COOK1: Arkansas River Nr Coolidge, KS

                                SHEF ID:       COOK1     ARKANSAS R NR COOLIDGE, KS
STATION TYPE:
Regulating: Stage = 8.00, Flow = 2028

PRECIP STAGE STAGE(2) RIV-FLOW WTR-TEMP CONDUCT BAT-LOAD
in ft ft cfs F umho/cm volt
Ccp-Rev Ccp-Rev Ccp-Rev Ccp-Rev Ccp-Rev Ccp-Rev Ccp-Rev
(America/Chicago)
07/24 00:00 0.00 4.57 4.73 381 77.95 3389 12.95
07/24 01:00 0.00 4.57 4.74 381 77.40 3406 12.89
07/24 02:00 0.00 4.57 4.75 381 76.75 3388 12.89
07/24 03:00 0.00 4.57 4.76 381 76.12 3361 12.89
07/24 04:00 0.00 4.58 4.75 384 75.42 3359 12.89
07/24 05:00 0.00 4.59 4.75 386 74.70 3357 12.83
07/24 06:00 0.00 4.58 4.74 384 73.99 3348 12.83
07/24 07:00 0.00 4.58 4.75 384 73.31 3337 12.77
07/24 08:00 0.00 4.58 4.76 384 72.79 3343 12.77
07/24 09:00 0.00 4.61 4.78 392 72.59 3353 13.00
07/24 10:00 0.00 4.61 4.75 392 72.81 3368 13.36
07/24 11:00 0.00 4.61 4.79 392 73.47 3368 13.65
07/24 12:00 0.00 4.59 4.78 386 74.48 3371 13.65
07/24 13:00 0.00 4.62 4.78 394 75.67 3379 13.77
07/24 14:00 0.00 4.63 4.80 397 76.93 3386 13.65
07/24 15:00 0.00 4.65 4.81 402 78.24 3373 13.65
07/24 16:00 0.00 4.62 4.77 394 79.48 3339 13.53
07/24 17:00 0.00 4.62 4.76 394 80.40 3335 13.42
07/24 18:00 0.00 4.59 4.76 386 80.91 3364 13.30
07/24 19:00 0.00 4.56 4.74 378 81.01 3384 13.18
07/24 20:00 0.00 4.58 4.73 384 80.85 3364 13.12
07/24 21:00 0.00 4.57 4.75 381 80.46 3373 13.07
07/24 22:00 0.00 4.59 4.77 389 79.97 3362 13.00
07/24 23:00 ---- ---- ---- ---- ---- ---- ----
Data processed at Thu 25Jul2024 04:30 GMT

Parsing this webpage?

Checkout our new Data API! CWMSDataAPI (CDA)

Timeseries IDs (TSIDs)

TSIDs used from left to right in the data table
COOL.Precip-Inc.Total.1Hour.1Hour.Ccp-Rev
COOL.Stage.Inst.1Hour.0.Ccp-Rev
COOL.Stage-Alt.Inst.1Hour.0.Ccp-Rev
COOL.Flow.Inst.1Hour.0.Ccp-Rev
COOL.Temp-Water.Inst.1Hour.0.Ccp-Rev
COOL.Cond.Inst.1Hour.0.Ccp-Rev
COOL.Volt-Battery Load.Inst.1Hour.0.Ccp-Rev

                            

All information presented herein is the property of the government of the United States of America and may be revised or deleted at any time without prior notice. Dissemination of this information without the expressed written consent of the Public Affairs Office, Tulsa District U.S. Army Corps of Engineers is strictly prohibited. These data are gathered electronically and, as presented, have NOT undergone any form of quality control. These data are NOT guaranteed to be valid or correct.